sensor_id;sensor_type;location;lat;lon;timestamp;temperature;humidity
728;DHT22;347;48.780;9.158;2022-09-01T00:00:22;19.30;46.10
728;DHT22;347;48.780;9.158;2022-09-01T00:02:54;19.30;45.70
728;DHT22;347;48.780;9.158;2022-09-01T00:05:20;19.40;45.60
728;DHT22;347;48.780;9.158;2022-09-01T00:07:46;19.40;45.50
728;DHT22;347;48.780;9.158;2022-09-01T00:10:12;19.50;45.20
728;DHT22;347;48.780;9.158;2022-09-01T00:12:38;19.50;44.90
728;DHT22;347;48.780;9.158;2022-09-01T00:15:05;19.60;44.80
728;DHT22;347;48.780;9.158;2022-09-01T00:17:31;19.60;44.70
728;DHT22;347;48.780;9.158;2022-09-01T00:19:58;19.60;44.30
728;DHT22;347;48.780;9.158;2022-09-01T00:22:24;19.60;43.80
728;DHT22;347;48.780;9.158;2022-09-01T00:24:50;19.60;43.70
728;DHT22;347;48.780;9.158;2022-09-01T00:27:16;19.60;43.80
728;DHT22;347;48.780;9.158;2022-09-01T00:29:41;19.60;43.70
728;DHT22;347;48.780;9.158;2022-09-01T00:32:07;19.60;43.60
728;DHT22;347;48.780;9.158;2022-09-01T00:34:33;19.60;43.30
728;DHT22;347;48.780;9.158;2022-09-01T00:36:59;19.60;43.00
728;DHT22;347;48.780;9.158;2022-09-01T00:39:24;19.60;43.00
728;DHT22;347;48.780;9.158;2022-09-01T00:41:50;19.60;42.90
728;DHT22;347;48.780;9.158;2022-09-01T00:44:19;19.60;42.50
728;DHT22;347;48.780;9.158;2022-09-01T00:46:49;19.60;42.60
728;DHT22;347;48.780;9.158;2022-09-01T00:49:19;19.60;42.40
728;DHT22;347;48.780;9.158;2022-09-01T00:51:50;19.50;42.50
728;DHT22;347;48.780;9.158;2022-09-01T00:54:23;19.50;42.80
728;DHT22;347;48.780;9.158;2022-09-01T00:56:52;19.50;43.00
728;DHT22;347;48.780;9.158;2022-09-01T00:59:19;19.50;43.20
728;DHT22;347;48.780;9.158;2022-09-01T01:01:46;19.50;43.10
728;DHT22;347;48.780;9.158;2022-09-01T01:04:13;19.50;42.60
728;DHT22;347;48.780;9.158;2022-09-01T01:06:44;19.50;42.80
728;DHT22;347;48.780;9.158;2022-09-01T01:09:18;19.40;43.10
728;DHT22;347;48.780;9.158;2022-09-01T01:11:44;19.40;43.40
728;DHT22;347;48.780;9.158;2022-09-01T01:14:13;19.40;43.50
728;DHT22;347;48.780;9.158;2022-09-01T01:16:44;19.40;43.50
728;DHT22;347;48.780;9.158;2022-09-01T01:22:12;19.40;43.00
728;DHT22;347;48.780;9.158;2022-09-01T01:24:57;19.40;43.10
728;DHT22;347;48.780;9.158;2022-09-01T01:27:23;19.40;42.90
728;DHT22;347;48.780;9.158;2022-09-01T01:29:49;19.40;42.90
728;DHT22;347;48.780;9.158;2022-09-01T01:32:17;19.40;42.90
728;DHT22;347;48.780;9.158;2022-09-01T01:34:42;19.40;43.10
728;DHT22;347;48.780;9.158;2022-09-01T01:37:11;19.40;43.10
728;DHT22;347;48.780;9.158;2022-09-01T01:39:39;19.30;43.10
728;DHT22;347;48.780;9.158;2022-09-01T01:42:07;19.40;43.20
728;DHT22;347;48.780;9.158;2022-09-01T01:44:34;19.40;43.10
728;DHT22;347;48.780;9.158;2022-09-01T01:47:04;19.40;43.00
728;DHT22;347;48.780;9.158;2022-09-01T01:49:34;19.40;42.80
728;DHT22;347;48.780;9.158;2022-09-01T01:52:00;19.40;42.80
728;DHT22;347;48.780;9.158;2022-09-01T01:54:27;19.40;42.80
728;DHT22;347;48.780;9.158;2022-09-01T01:56:57;19.40;42.90
728;DHT22;347;48.780;9.158;2022-09-01T01:59:23;19.40;42.90
728;DHT22;347;48.780;9.158;2022-09-01T02:01:51;19.40;42.70
728;DHT22;347;48.780;9.158;2022-09-01T02:04:18;19.40;43.00
728;DHT22;347;48.780;9.158;2022-09-01T02:06:45;19.30;42.80
728;DHT22;347;48.780;9.158;2022-09-01T02:09:13;19.30;43.20
728;DHT22;347;48.780;9.158;2022-09-01T02:11:40;19.30;43.10
728;DHT22;347;48.780;9.158;2022-09-01T02:14:07;19.30;42.90
728;DHT22;347;48.780;9.158;2022-09-01T02:16:33;19.30;42.50
728;DHT22;347;48.780;9.158;2022-09-01T02:19:00;19.30;41.80
728;DHT22;347;48.780;9.158;2022-09-01T02:21:27;19.30;41.50
728;DHT22;347;48.780;9.158;2022-09-01T02:24:02;19.30;41.50
728;DHT22;347;48.780;9.158;2022-09-01T02:26:40;19.30;41.30
728;DHT22;347;48.780;9.158;2022-09-01T02:29:14;19.30;40.80
728;DHT22;347;48.780;9.158;2022-09-01T02:31:44;19.30;40.90
728;DHT22;347;48.780;9.158;2022-09-01T02:34:11;19.30;40.50
728;DHT22;347;48.780;9.158;2022-09-01T02:36:40;19.20;40.80
728;DHT22;347;48.780;9.158;2022-09-01T02:39:09;19.20;41.10
728;DHT22;347;48.780;9.158;2022-09-01T02:41:34;19.10;40.70
728;DHT22;347;48.780;9.158;2022-09-01T02:44:01;18.90;42.00
728;DHT22;347;48.780;9.158;2022-09-01T02:46:28;18.80;42.00
728;DHT22;347;48.780;9.158;2022-09-01T02:48:54;18.70;42.60
728;DHT22;347;48.780;9.158;2022-09-01T02:51:22;18.70;42.40
728;DHT22;347;48.780;9.158;2022-09-01T02:53:50;18.50;42.80
728;DHT22;347;48.780;9.158;2022-09-01T02:56:19;18.40;43.70
728;DHT22;347;48.780;9.158;2022-09-01T02:58:47;18.30;43.80
728;DHT22;347;48.780;9.158;2022-09-01T03:01:26;18.40;44.30
728;DHT22;347;48.780;9.158;2022-09-01T03:03:58;18.40;44.00
728;DHT22;347;48.780;9.158;2022-09-01T03:06:25;18.30;43.90
728;DHT22;347;48.780;9.158;2022-09-01T03:08:53;18.40;44.50
728;DHT22;347;48.780;9.158;2022-09-01T03:11:20;18.50;43.80
728;DHT22;347;48.780;9.158;2022-09-01T03:13:46;18.60;43.10
728;DHT22;347;48.780;9.158;2022-09-01T03:16:12;18.70;42.60
728;DHT22;347;48.780;9.158;2022-09-01T03:18:38;18.80;42.20
728;DHT22;347;48.780;9.158;2022-09-01T03:21:05;18.80;41.90
728;DHT22;347;48.780;9.158;2022-09-01T03:23:31;18.90;41.40
728;DHT22;347;48.780;9.158;2022-09-01T03:25:58;19.00;41.40
728;DHT22;347;48.780;9.158;2022-09-01T03:28:25;19.00;41.10
728;DHT22;347;48.780;9.158;2022-09-01T03:30:52;19.10;40.90
728;DHT22;347;48.780;9.158;2022-09-01T03:33:20;19.10;41.10
728;DHT22;347;48.780;9.158;2022-09-01T03:35:46;19.10;41.00
728;DHT22;347;48.780;9.158;2022-09-01T03:38:13;19.10;41.10
728;DHT22;347;48.780;9.158;2022-09-01T03:40:47;19.10;41.30
728;DHT22;347;48.780;9.158;2022-09-01T03:43:14;19.10;41.20
728;DHT22;347;48.780;9.158;2022-09-01T03:45:41;19.10;41.10
728;DHT22;347;48.780;9.158;2022-09-01T03:48:08;19.00;42.10
728;DHT22;347;48.780;9.158;2022-09-01T03:50:36;19.00;42.30
728;DHT22;347;48.780;9.158;2022-09-01T03:53:10;19.00;41.90
728;DHT22;347;48.780;9.158;2022-09-01T03:55:36;19.00;41.80
728;DHT22;347;48.780;9.158;2022-09-01T03:58:07;19.00;41.90
728;DHT22;347;48.780;9.158;2022-09-01T04:00:39;19.00;41.90
728;DHT22;347;48.780;9.158;2022-09-01T04:03:07;19.00;41.90
728;DHT22;347;48.780;9.158;2022-09-01T04:05:34;19.00;41.80
728;DHT22;347;48.780;9.158;2022-09-01T04:08:04;19.00;42.10
728;DHT22;347;48.780;9.158;2022-09-01T04:10:32;18.90;42.10
728;DHT22;347;48.780;9.158;2022-09-01T04:12:59;18.90;42.40
728;DHT22;347;48.780;9.158;2022-09-01T04:15:27;18.90;42.20
728;DHT22;347;48.780;9.158;2022-09-01T04:17:54;18.90;42.20
728;DHT22;347;48.780;9.158;2022-09-01T04:20:36;18.90;41.90
728;DHT22;347;48.780;9.158;2022-09-01T04:23:23;19.00;41.80
728;DHT22;347;48.780;9.158;2022-09-01T04:26:13;18.90;41.60
728;DHT22;347;48.780;9.158;2022-09-01T04:28:46;18.80;41.90
728;DHT22;347;48.780;9.158;2022-09-01T04:31:21;18.80;42.30
728;DHT22;347;48.780;9.158;2022-09-01T04:33:50;18.70;42.30
728;DHT22;347;48.780;9.158;2022-09-01T04:36:25;18.70;42.30
728;DHT22;347;48.780;9.158;2022-09-01T04:38:59;18.70;42.50
728;DHT22;347;48.780;9.158;2022-09-01T04:41:30;18.70;42.50
728;DHT22;347;48.780;9.158;2022-09-01T04:43:58;18.70;42.80
728;DHT22;347;48.780;9.158;2022-09-01T04:46:26;18.70;42.70
728;DHT22;347;48.780;9.158;2022-09-01T04:48:54;18.70;42.50
728;DHT22;347;48.780;9.158;2022-09-01T04:51:21;18.80;42.20
728;DHT22;347;48.780;9.158;2022-09-01T04:53:48;18.80;42.30
728;DHT22;347;48.780;9.158;2022-09-01T04:56:17;18.70;42.10
728;DHT22;347;48.780;9.158;2022-09-01T04:58:45;18.70;42.10
728;DHT22;347;48.780;9.158;2022-09-01T05:01:21;18.70;42.00
728;DHT22;347;48.780;9.158;2022-09-01T05:03:48;18.70;42.10
728;DHT22;347;48.780;9.158;2022-09-01T05:06:21;18.70;42.00
728;DHT22;347;48.780;9.158;2022-09-01T05:08:47;18.70;42.30
728;DHT22;347;48.780;9.158;2022-09-01T05:11:13;18.70;42.40
728;DHT22;347;48.780;9.158;2022-09-01T05:13:47;18.60;42.10
728;DHT22;347;48.780;9.158;2022-09-01T05:16:15;18.60;42.50
728;DHT22;347;48.780;9.158;2022-09-01T05:18:42;18.70;42.00
728;DHT22;347;48.780;9.158;2022-09-01T05:21:14;18.70;42.00
728;DHT22;347;48.780;9.158;2022-09-01T05:23:45;18.50;42.90
728;DHT22;347;48.780;9.158;2022-09-01T05:26:17;18.20;44.70
728;DHT22;347;48.780;9.158;2022-09-01T05:28:44;18.20;44.30
728;DHT22;347;48.780;9.158;2022-09-01T05:31:11;18.30;44.00
728;DHT22;347;48.780;9.158;2022-09-01T05:33:38;18.30;43.90
728;DHT22;347;48.780;9.158;2022-09-01T05:36:11;18.40;43.50
728;DHT22;347;48.780;9.158;2022-09-01T05:38:38;18.40;43.30
728;DHT22;347;48.780;9.158;2022-09-01T05:41:08;18.50;43.10
728;DHT22;347;48.780;9.158;2022-09-01T05:43:40;18.50;43.30
728;DHT22;347;48.780;9.158;2022-09-01T05:46:12;18.50;43.30
728;DHT22;347;48.780;9.158;2022-09-01T05:48:44;18.50;43.50
728;DHT22;347;48.780;9.158;2022-09-01T05:51:11;18.50;43.00
728;DHT22;347;48.780;9.158;2022-09-01T05:53:40;18.60;43.30
728;DHT22;347;48.780;9.158;2022-09-01T05:56:09;18.60;42.80
728;DHT22;347;48.780;9.158;2022-09-01T05:58:38;18.60;42.80
728;DHT22;347;48.780;9.158;2022-09-01T06:01:05;18.60;42.70
728;DHT22;347;48.780;9.158;2022-09-01T06:03:31;18.60;42.20
728;DHT22;347;48.780;9.158;2022-09-01T06:06:04;18.70;42.00
728;DHT22;347;48.780;9.158;2022-09-01T06:08:34;18.70;42.10
728;DHT22;347;48.780;9.158;2022-09-01T06:11:01;18.70;42.10
728;DHT22;347;48.780;9.158;2022-09-01T06:13:28;18.70;41.90
728;DHT22;347;48.780;9.158;2022-09-01T06:15:54;18.70;41.80
728;DHT22;347;48.780;9.158;2022-09-01T06:18:23;18.70;41.60
728;DHT22;347;48.780;9.158;2022-09-01T06:20:49;18.70;41.30
728;DHT22;347;48.780;9.158;2022-09-01T06:23:16;18.70;41.40
728;DHT22;347;48.780;9.158;2022-09-01T06:25:46;18.70;41.30
728;DHT22;347;48.780;9.158;2022-09-01T06:28:16;18.70;41.50
728;DHT22;347;48.780;9.158;2022-09-01T06:30:43;18.80;41.70
728;DHT22;347;48.780;9.158;2022-09-01T06:33:11;18.70;41.80
728;DHT22;347;48.780;9.158;2022-09-01T06:35:42;18.60;42.00
728;DHT22;347;48.780;9.158;2022-09-01T06:38:10;18.40;42.50
728;DHT22;347;48.780;9.158;2022-09-01T06:40:36;18.10;43.50
728;DHT22;347;48.780;9.158;2022-09-01T06:43:04;18.10;43.70
728;DHT22;347;48.780;9.158;2022-09-01T06:45:43;18.20;44.80
728;DHT22;347;48.780;9.158;2022-09-01T06:48:14;18.20;43.80
728;DHT22;347;48.780;9.158;2022-09-01T06:50:41;18.30;44.60
728;DHT22;347;48.780;9.158;2022-09-01T06:53:07;18.40;44.00
728;DHT22;347;48.780;9.158;2022-09-01T06:55:38;18.50;43.50
728;DHT22;347;48.780;9.158;2022-09-01T06:58:08;18.60;43.10
728;DHT22;347;48.780;9.158;2022-09-01T07:00:38;18.70;42.70
728;DHT22;347;48.780;9.158;2022-09-01T07:03:16;18.80;42.90
728;DHT22;347;48.780;9.158;2022-09-01T07:05:44;18.90;42.60
728;DHT22;347;48.780;9.158;2022-09-01T07:08:13;18.80;43.20
728;DHT22;347;48.780;9.158;2022-09-01T07:10:45;18.80;42.40
728;DHT22;347;48.780;9.158;2022-09-01T07:13:13;18.90;41.90
728;DHT22;347;48.780;9.158;2022-09-01T07:15:43;18.70;41.70
728;DHT22;347;48.780;9.158;2022-09-01T07:18:09;18.40;43.30
728;DHT22;347;48.780;9.158;2022-09-01T07:20:40;18.50;44.20
728;DHT22;347;48.780;9.158;2022-09-01T07:23:07;18.60;43.90
728;DHT22;347;48.780;9.158;2022-09-01T07:25:36;18.60;43.10
728;DHT22;347;48.780;9.158;2022-09-01T07:28:03;18.60;42.30
728;DHT22;347;48.780;9.158;2022-09-01T07:30:29;18.60;43.60
728;DHT22;347;48.780;9.158;2022-09-01T07:32:56;18.80;43.10
728;DHT22;347;48.780;9.158;2022-09-01T07:35:22;18.80;42.90
728;DHT22;347;48.780;9.158;2022-09-01T07:37:48;18.90;42.00
728;DHT22;347;48.780;9.158;2022-09-01T07:40:17;18.90;41.40
728;DHT22;347;48.780;9.158;2022-09-01T07:42:46;19.00;41.10
728;DHT22;347;48.780;9.158;2022-09-01T07:45:14;19.10;41.10
728;DHT22;347;48.780;9.158;2022-09-01T07:47:42;19.10;40.70
728;DHT22;347;48.780;9.158;2022-09-01T07:50:10;19.10;40.30
728;DHT22;347;48.780;9.158;2022-09-01T07:52:38;19.20;40.50
728;DHT22;347;48.780;9.158;2022-09-01T07:55:14;19.30;39.70
728;DHT22;347;48.780;9.158;2022-09-01T07:57:42;19.30;39.70
728;DHT22;347;48.780;9.158;2022-09-01T08:00:10;19.30;39.70
728;DHT22;347;48.780;9.158;2022-09-01T08:02:36;19.30;39.70
728;DHT22;347;48.780;9.158;2022-09-01T08:05:07;19.30;39.70
728;DHT22;347;48.780;9.158;2022-09-01T08:07:36;19.30;39.70
728;DHT22;347;48.780;9.158;2022-09-01T08:10:06;19.40;39.70
728;DHT22;347;48.780;9.158;2022-09-01T08:12:33;19.50;39.10
728;DHT22;347;48.780;9.158;2022-09-01T08:15:01;19.60;38.90
728;DHT22;347;48.780;9.158;2022-09-01T08:17:26;19.60;38.00
728;DHT22;347;48.780;9.158;2022-09-01T08:19:52;19.50;38.50
728;DHT22;347;48.780;9.158;2022-09-01T08:22:18;19.50;38.50
728;DHT22;347;48.780;9.158;2022-09-01T08:24:48;19.60;38.90
728;DHT22;347;48.780;9.158;2022-09-01T08:27:13;19.70;38.30
728;DHT22;347;48.780;9.158;2022-09-01T08:29:39;19.60;38.00
728;DHT22;347;48.780;9.158;2022-09-01T08:32:04;19.60;38.60
728;DHT22;347;48.780;9.158;2022-09-01T08:34:32;19.60;38.20
728;DHT22;347;48.780;9.158;2022-09-01T08:36:57;19.70;38.80
728;DHT22;347;48.780;9.158;2022-09-01T08:39:23;19.80;38.70
728;DHT22;347;48.780;9.158;2022-09-01T08:46:59;19.70;38.00
728;DHT22;347;48.780;9.158;2022-09-01T08:49:26;19.80;37.50
728;DHT22;347;48.780;9.158;2022-09-01T08:55:06;19.80;37.00
728;DHT22;347;48.780;9.158;2022-09-01T08:57:36;19.80;37.10
728;DHT22;347;48.780;9.158;2022-09-01T09:00:05;19.80;37.20
728;DHT22;347;48.780;9.158;2022-09-01T09:05:07;19.80;37.30
728;DHT22;347;48.780;9.158;2022-09-01T09:07:49;19.80;37.30
728;DHT22;347;48.780;9.158;2022-09-01T09:10:29;19.80;36.60
728;DHT22;347;48.780;9.158;2022-09-01T09:13:20;19.80;36.80
728;DHT22;347;48.780;9.158;2022-09-01T09:16:09;19.70;36.90
728;DHT22;347;48.780;9.158;2022-09-01T09:24:02;19.80;36.90
728;DHT22;347;48.780;9.158;2022-09-01T09:26:31;19.90;36.80
728;DHT22;347;48.780;9.158;2022-09-01T09:28:56;20.00;36.70
728;DHT22;347;48.780;9.158;2022-09-01T09:31:29;20.00;35.10
728;DHT22;347;48.780;9.158;2022-09-01T09:33:55;20.10;36.20
728;DHT22;347;48.780;9.158;2022-09-01T09:36:35;20.10;36.30
728;DHT22;347;48.780;9.158;2022-09-01T09:39:06;20.00;35.40
728;DHT22;347;48.780;9.158;2022-09-01T09:41:32;20.10;36.00
728;DHT22;347;48.780;9.158;2022-09-01T09:44:03;20.10;36.00
728;DHT22;347;48.780;9.158;2022-09-01T09:46:40;20.10;36.00
728;DHT22;347;48.780;9.158;2022-09-01T09:51:47;20.20;36.00
728;DHT22;347;48.780;9.158;2022-09-01T09:54:57;20.20;35.40
728;DHT22;347;48.780;9.158;2022-09-01T09:57:22;20.30;35.60
728;DHT22;347;48.780;9.158;2022-09-01T10:02:35;20.30;34.00
728;DHT22;347;48.780;9.158;2022-09-01T10:07:47;20.60;32.40
728;DHT22;347;48.780;9.158;2022-09-01T10:13:18;20.70;32.20
728;DHT22;347;48.780;9.158;2022-09-01T10:15:54;20.70;32.50
728;DHT22;347;48.780;9.158;2022-09-01T10:18:44;20.70;31.90
728;DHT22;347;48.780;9.158;2022-09-01T10:21:12;20.70;32.10
728;DHT22;347;48.780;9.158;2022-09-01T10:23:39;20.70;31.90
728;DHT22;347;48.780;9.158;2022-09-01T10:26:10;20.70;31.20
728;DHT22;347;48.780;9.158;2022-09-01T10:31:26;20.80;31.00
728;DHT22;347;48.780;9.158;2022-09-01T10:33:52;20.80;31.10
728;DHT22;347;48.780;9.158;2022-09-01T10:36:19;20.80;31.00
728;DHT22;347;48.780;9.158;2022-09-01T10:38:46;21.00;30.40
728;DHT22;347;48.780;9.158;2022-09-01T10:41:49;21.10;31.50
728;DHT22;347;48.780;9.158;2022-09-01T10:44:31;21.20;30.50
728;DHT22;347;48.780;9.158;2022-09-01T10:47:09;21.20;29.50
728;DHT22;347;48.780;9.158;2022-09-01T10:55:09;21.40;28.50
728;DHT22;347;48.780;9.158;2022-09-01T10:57:59;21.40;27.90
728;DHT22;347;48.780;9.158;2022-09-01T11:06:02;21.60;27.30
728;DHT22;347;48.780;9.158;2022-09-01T11:16:34;22.20;26.60
728;DHT22;347;48.780;9.158;2022-09-01T11:21:46;22.30;25.30
728;DHT22;347;48.780;9.158;2022-09-01T11:27:10;22.20;26.00
728;DHT22;347;48.780;9.158;2022-09-01T11:30:09;22.10;26.70
728;DHT22;347;48.780;9.158;2022-09-01T11:32:36;22.20;26.80
728;DHT22;347;48.780;9.158;2022-09-01T11:35:06;22.10;27.30
728;DHT22;347;48.780;9.158;2022-09-01T11:37:39;22.10;27.20
728;DHT22;347;48.780;9.158;2022-09-01T11:40:06;22.00;27.20
728;DHT22;347;48.780;9.158;2022-09-01T11:42:40;22.10;26.90
728;DHT22;347;48.780;9.158;2022-09-01T11:45:14;22.00;27.20
728;DHT22;347;48.780;9.158;2022-09-01T11:47:43;22.00;27.00
728;DHT22;347;48.780;9.158;2022-09-01T11:50:20;22.10;27.10
728;DHT22;347;48.780;9.158;2022-09-01T11:52:58;22.00;25.50
728;DHT22;347;48.780;9.158;2022-09-01T11:57:58;22.00;26.20
728;DHT22;347;48.780;9.158;2022-09-01T12:00:32;22.00;25.90
728;DHT22;347;48.780;9.158;2022-09-01T12:03:03;22.00;26.10
728;DHT22;347;48.780;9.158;2022-09-01T12:05:33;22.10;26.10
728;DHT22;347;48.780;9.158;2022-09-01T12:08:02;22.10;26.70
728;DHT22;347;48.780;9.158;2022-09-01T12:10:34;22.00;26.00
728;DHT22;347;48.780;9.158;2022-09-01T12:13:04;22.10;26.50
728;DHT22;347;48.780;9.158;2022-09-01T12:15:31;22.10;26.90
728;DHT22;347;48.780;9.158;2022-09-01T12:18:29;22.20;27.10
728;DHT22;347;48.780;9.158;2022-09-01T12:21:01;22.20;26.20
728;DHT22;347;48.780;9.158;2022-09-01T12:23:35;22.30;26.20
728;DHT22;347;48.780;9.158;2022-09-01T12:26:07;22.30;25.20
728;DHT22;347;48.780;9.158;2022-09-01T12:28:34;22.30;24.90
728;DHT22;347;48.780;9.158;2022-09-01T12:31:04;22.30;26.10
728;DHT22;347;48.780;9.158;2022-09-01T12:33:31;22.30;26.00
728;DHT22;347;48.780;9.158;2022-09-01T12:36:30;22.30;26.50
728;DHT22;347;48.780;9.158;2022-09-01T12:41:43;22.20;26.40
728;DHT22;347;48.780;9.158;2022-09-01T12:44:33;22.20;26.60
728;DHT22;347;48.780;9.158;2022-09-01T12:47:08;22.20;25.90
728;DHT22;347;48.780;9.158;2022-09-01T12:49:45;22.20;25.40
728;DHT22;347;48.780;9.158;2022-09-01T12:54:37;22.10;25.70
728;DHT22;347;48.780;9.158;2022-09-01T12:57:04;22.20;25.50
728;DHT22;347;48.780;9.158;2022-09-01T12:59:30;22.20;24.90
728;DHT22;347;48.780;9.158;2022-09-01T13:01:55;22.30;23.60
728;DHT22;347;48.780;9.158;2022-09-01T13:04:25;22.30;23.80
728;DHT22;347;48.780;9.158;2022-09-01T13:07:06;22.40;23.80
728;DHT22;347;48.780;9.158;2022-09-01T13:09:32;22.50;23.60
728;DHT22;347;48.780;9.158;2022-09-01T13:12:18;22.60;23.50
728;DHT22;347;48.780;9.158;2022-09-01T13:14:45;22.60;22.90
728;DHT22;347;48.780;9.158;2022-09-01T13:17:11;22.60;22.50
728;DHT22;347;48.780;9.158;2022-09-01T13:19:37;22.70;22.40
728;DHT22;347;48.780;9.158;2022-09-01T13:22:04;22.70;22.50
728;DHT22;347;48.780;9.158;2022-09-01T13:24:30;22.80;22.50
728;DHT22;347;48.780;9.158;2022-09-01T13:26:55;22.80;22.40
728;DHT22;347;48.780;9.158;2022-09-01T13:29:22;22.90;22.70
728;DHT22;347;48.780;9.158;2022-09-01T13:31:48;22.90;23.20
728;DHT22;347;48.780;9.158;2022-09-01T13:34:14;22.90;23.30
728;DHT22;347;48.780;9.158;2022-09-01T13:36:39;22.90;22.90
728;DHT22;347;48.780;9.158;2022-09-01T13:39:05;22.80;23.50
728;DHT22;347;48.780;9.158;2022-09-01T13:41:31;22.90;23.00
728;DHT22;347;48.780;9.158;2022-09-01T13:43:56;22.90;22.50
728;DHT22;347;48.780;9.158;2022-09-01T13:46:22;22.90;22.40
728;DHT22;347;48.780;9.158;2022-09-01T13:48:48;22.80;22.10
728;DHT22;347;48.780;9.158;2022-09-01T13:51:26;22.80;22.70
728;DHT22;347;48.780;9.158;2022-09-01T13:53:52;22.70;22.90
728;DHT22;347;48.780;9.158;2022-09-01T13:56:18;22.70;22.90
728;DHT22;347;48.780;9.158;2022-09-01T13:58:43;22.70;22.70
728;DHT22;347;48.780;9.158;2022-09-01T14:01:09;22.80;22.50
728;DHT22;347;48.780;9.158;2022-09-01T14:03:35;22.80;22.30
728;DHT22;347;48.780;9.158;2022-09-01T14:06:01;22.80;22.30
728;DHT22;347;48.780;9.158;2022-09-01T14:08:26;22.80;22.30
728;DHT22;347;48.780;9.158;2022-09-01T14:10:52;22.90;22.70
728;DHT22;347;48.780;9.158;2022-09-01T14:13:20;22.90;21.50
728;DHT22;347;48.780;9.158;2022-09-01T14:15:46;22.90;21.50
728;DHT22;347;48.780;9.158;2022-09-01T14:18:14;22.90;21.70
728;DHT22;347;48.780;9.158;2022-09-01T14:20:43;22.90;21.50
728;DHT22;347;48.780;9.158;2022-09-01T14:23:10;22.90;21.70
728;DHT22;347;48.780;9.158;2022-09-01T14:25:36;22.90;21.70
728;DHT22;347;48.780;9.158;2022-09-01T14:28:05;22.90;22.40
728;DHT22;347;48.780;9.158;2022-09-01T14:30:31;22.90;22.10
728;DHT22;347;48.780;9.158;2022-09-01T14:33:00;23.10;22.10
728;DHT22;347;48.780;9.158;2022-09-01T14:35:26;23.20;22.20
728;DHT22;347;48.780;9.158;2022-09-01T14:37:53;23.20;22.10
728;DHT22;347;48.780;9.158;2022-09-01T14:40:20;23.20;22.00
728;DHT22;347;48.780;9.158;2022-09-01T14:42:48;23.20;22.20
728;DHT22;347;48.780;9.158;2022-09-01T14:45:17;23.10;22.00
728;DHT22;347;48.780;9.158;2022-09-01T14:47:45;23.20;21.20
728;DHT22;347;48.780;9.158;2022-09-01T14:50:11;23.10;20.80
728;DHT22;347;48.780;9.158;2022-09-01T14:52:37;23.10;19.50
728;DHT22;347;48.780;9.158;2022-09-01T14:55:03;23.00;20.50
728;DHT22;347;48.780;9.158;2022-09-01T14:57:29;23.00;21.00
728;DHT22;347;48.780;9.158;2022-09-01T14:59:57;23.00;21.00
728;DHT22;347;48.780;9.158;2022-09-01T15:02:23;23.00;21.10
728;DHT22;347;48.780;9.158;2022-09-01T15:04:50;23.00;20.70
728;DHT22;347;48.780;9.158;2022-09-01T15:07:15;22.90;20.30
728;DHT22;347;48.780;9.158;2022-09-01T15:09:41;23.00;19.50
728;DHT22;347;48.780;9.158;2022-09-01T15:12:07;23.00;19.20
728;DHT22;347;48.780;9.158;2022-09-01T15:14:34;23.00;19.50
728;DHT22;347;48.780;9.158;2022-09-01T15:17:00;22.90;19.60
728;DHT22;347;48.780;9.158;2022-09-01T15:19:26;23.00;19.40
728;DHT22;347;48.780;9.158;2022-09-01T15:21:51;22.90;19.80
728;DHT22;347;48.780;9.158;2022-09-01T15:24:17;23.00;20.10
728;DHT22;347;48.780;9.158;2022-09-01T15:26:43;23.00;19.80
728;DHT22;347;48.780;9.158;2022-09-01T15:29:12;23.00;20.50
728;DHT22;347;48.780;9.158;2022-09-01T15:31:40;23.00;20.30
728;DHT22;347;48.780;9.158;2022-09-01T15:34:06;23.00;19.80
728;DHT22;347;48.780;9.158;2022-09-01T15:36:35;23.00;19.50
728;DHT22;347;48.780;9.158;2022-09-01T15:39:01;23.00;19.90
728;DHT22;347;48.780;9.158;2022-09-01T15:41:29;23.00;20.10
728;DHT22;347;48.780;9.158;2022-09-01T15:43:56;23.00;19.80
728;DHT22;347;48.780;9.158;2022-09-01T15:46:22;23.00;20.00
728;DHT22;347;48.780;9.158;2022-09-01T15:48:56;23.00;20.30
728;DHT22;347;48.780;9.158;2022-09-01T15:53:54;23.00;20.50
728;DHT22;347;48.780;9.158;2022-09-01T15:56:20;22.90;19.90
728;DHT22;347;48.780;9.158;2022-09-01T15:58:46;22.90;20.10
728;DHT22;347;48.780;9.158;2022-09-01T16:01:13;22.90;20.00
728;DHT22;347;48.780;9.158;2022-09-01T16:03:39;23.00;20.40
728;DHT22;347;48.780;9.158;2022-09-01T16:06:05;23.00;19.60
728;DHT22;347;48.780;9.158;2022-09-01T16:08:31;23.00;20.00
728;DHT22;347;48.780;9.158;2022-09-01T16:10:57;23.00;19.80
728;DHT22;347;48.780;9.158;2022-09-01T16:13:22;23.00;19.70
728;DHT22;347;48.780;9.158;2022-09-01T16:19:35;22.90;19.90
728;DHT22;347;48.780;9.158;2022-09-01T16:24:43;22.80;20.30
728;DHT22;347;48.780;9.158;2022-09-01T16:27:13;22.80;20.50
728;DHT22;347;48.780;9.158;2022-09-01T16:29:46;22.80;21.00
728;DHT22;347;48.780;9.158;2022-09-01T16:32:14;22.80;20.30
728;DHT22;347;48.780;9.158;2022-09-01T16:34:42;22.90;19.90
728;DHT22;347;48.780;9.158;2022-09-01T16:40:06;22.90;19.60
728;DHT22;347;48.780;9.158;2022-09-01T16:42:41;22.90;19.80
728;DHT22;347;48.780;9.158;2022-09-01T16:59:28;22.80;20.60
728;DHT22;347;48.780;9.158;2022-09-01T17:01:46;22.80;20.70
728;DHT22;347;48.780;9.158;2022-09-01T17:04:34;22.80;21.00
728;DHT22;347;48.780;9.158;2022-09-01T17:07:20;22.80;21.20
728;DHT22;347;48.780;9.158;2022-09-01T17:10:17;22.70;20.70
728;DHT22;347;48.780;9.158;2022-09-01T17:15:15;22.70;20.30
728;DHT22;347;48.780;9.158;2022-09-01T17:18:14;22.60;20.30
728;DHT22;347;48.780;9.158;2022-09-01T17:20:43;22.70;20.70
728;DHT22;347;48.780;9.158;2022-09-01T17:23:16;22.60;21.10
728;DHT22;347;48.780;9.158;2022-09-01T17:25:59;22.60;20.70
728;DHT22;347;48.780;9.158;2022-09-01T17:28:39;22.50;20.90
728;DHT22;347;48.780;9.158;2022-09-01T17:31:17;22.50;20.90
728;DHT22;347;48.780;9.158;2022-09-01T17:34:00;22.40;21.10
728;DHT22;347;48.780;9.158;2022-09-01T17:37:07;22.40;21.30
728;DHT22;347;48.780;9.158;2022-09-01T17:42:42;22.30;21.50
728;DHT22;347;48.780;9.158;2022-09-01T17:57:01;22.10;21.00
728;DHT22;347;48.780;9.158;2022-09-01T18:10:57;22.00;21.50
728;DHT22;347;48.780;9.158;2022-09-01T18:13:53;21.90;21.20
728;DHT22;347;48.780;9.158;2022-09-01T18:16:33;21.90;21.50
728;DHT22;347;48.780;9.158;2022-09-01T18:19:09;21.90;21.70
728;DHT22;347;48.780;9.158;2022-09-01T18:21:39;21.90;21.80
728;DHT22;347;48.780;9.158;2022-09-01T18:24:19;21.80;21.20
728;DHT22;347;48.780;9.158;2022-09-01T18:26:48;21.80;22.00
728;DHT22;347;48.780;9.158;2022-09-01T18:29:15;21.80;22.10
728;DHT22;347;48.780;9.158;2022-09-01T18:36:58;21.80;22.30
728;DHT22;347;48.780;9.158;2022-09-01T18:42:31;21.70;22.20
728;DHT22;347;48.780;9.158;2022-09-01T18:45:35;21.70;22.30
728;DHT22;347;48.780;9.158;2022-09-01T18:48:07;21.70;22.40
728;DHT22;347;48.780;9.158;2022-09-01T18:50:45;21.70;22.30
728;DHT22;347;48.780;9.158;2022-09-01T18:56:41;21.70;22.20
728;DHT22;347;48.780;9.158;2022-09-01T18:59:30;21.60;22.30
728;DHT22;347;48.780;9.158;2022-09-01T19:02:03;21.60;22.70
728;DHT22;347;48.780;9.158;2022-09-01T19:04:39;21.60;22.80